Pagrindinis puslapis
METAR-TAF:

METAR-TAF

Oro uostai :

Ibagė, Kolumbija

platuma: 04-26N, ilguma: 075-09W, Aukštis: 928 m

Dabartinis oras

Ataskaita buvo paskelbta 47 minutes, ne 23:00 UTC
Vėjas 3 kt iš Rytų
Temperatūra 26°C
Drėgmė 79%
Slėgis 1018 hPa
Matomumas 10 km arba daugiau
Mažai debesys ne aukštis 3000 ft
Su prošvaistėmis ne aukštis 10000 ft

METAR: SKIB 052300Z 09003KT 9999 FEW030 BKN100 26/22 A3006

Laikas: 18:47 (23:47 UTC)


TAF: trūkstamas

Orai ataskaitas ir orų prognozės (METAR, TAF).

turimą stotys yra geltonos ir raudonos taškus žemėlapyje.

Perkelti pele per norėdami pamatyti stoties vardą.

Tada spustelėkite, norėdami matyti oro stebėjimo ir prognozės.

Norėdami pakeisti žemėlapį: spustelėkite ant žalios mygtukų su juodo kryžiaus žemyn,; žalią mygtuką su brūkšneliu, jei norite nutolinti; arba žalių rodyklių gretimoms žemėlapius.


METAR-TAF: